Seal — PB4599 — position and weather

sailwx.info

Track history (hours):
 
Tides and Currents Weather Stations Pressure Air Temp Water Temp Dewpoint Dewpoint Depression Visibility Wind Speed Wind Dir Waves Ship Positions

Seal

Last reported at 2016-Aug-25 19:11 UTC. Time now 2016-Aug-26 23:27 UTC.
Position N 52°20' E 005°08'.

Length 11 m.

Type: Pleasure craft. MMSI: 244660324.

Date/timePositionNaut miles runAvg speedWind from/ knotsBaromVisibWave heightAir tempDewpointWater temp
2016-Aug-25 19:11N 52°20' E 005°08'0 0.6
2016-Aug-25 18:33N 52°20' E 005°08'0 0.0
2016-Aug-25 17:33N 52°20' E 005°08'  
2016-Aug-21 19:28N 52°20' E 005°08'0 0.0
2016-Aug-21 18:32N 52°20' E 005°08'0 0.0
2016-Aug-21 17:23N 52°20' E 005°08'0 0.0
2016-Aug-21 16:20N 52°20' E 005°08'2 2.9
2016-Aug-21 15:33N 52°22' E 005°05'5 4.7
2016-Aug-21 14:33N 52°23' E 004°58'3 2.6
2016-Aug-21 13:33N 52°24' E 004°54'5 5.2
2016-Aug-21 12:33N 52°26' E 004°46'4 3.5
2016-Aug-21 11:33N 52°27' E 004°41'3 3.2
2016-Aug-21 10:29N 52°28' E 004°35'1 0.9
2016-Aug-21 09:32N 52°28' E 004°34'0 0.0
2016-Aug-21 08:29N 52°28' E 004°34'0 0.0
2016-Aug-21 07:32N 52°28' E 004°34'0 0.0
2016-Aug-20 21:33N 52°28' E 004°34'0 0.0
2016-Aug-20 20:30N 52°28' E 004°34'2 2.4
2016-Aug-20 19:33N 52°28' E 004°30'6 6.1
2016-Aug-20 18:33N 52°22' E 004°25'7 7.3
2016-Aug-20 17:33N 52°16' E 004°19'7 7.4
2016-Aug-20 16:33N 52°10' E 004°13'7 7.3
2016-Aug-20 15:33N 52°04' E 004°06'5 4.7
2016-Aug-20 14:33N 51°59' E 004°06'5 5.1
2016-Aug-20 13:33N 51°56' E 004°13'6 5.7
2016-Aug-20 12:32N 51°54' E 004°21'5 5.0
2016-Aug-20 11:32N 51°55' E 004°29'0 0.0
2016-Aug-19 19:17N 51°55' E 004°30'  
2016-Aug-17 09:24N 52°21' E 005°08'  
Track history (hours):
 
Tides and Currents Weather Stations Pressure Air Temp Water Temp Dewpoint Dewpoint Depression Visibility Wind Speed Wind Dir Waves Ship Positions

Seal

Last reported at 2016-Aug-25 19:11 UTC. Time now 2016-Aug-26 23:27 UTC.
Position N 52°20' E 005°08'.

Length 11 m.

Type: Pleasure craft. MMSI: 244660324.

Date/timePositionNaut miles runAvg speedWind from/ knotsBaromVisibWave heightAir tempDewpointWater temp
2016-Aug-25 19:11N 52°20' E 005°08'0 0.6
2016-Aug-25 18:33N 52°20' E 005°08'0 0.0
2016-Aug-25 17:33N 52°20' E 005°08'  
2016-Aug-21 19:28N 52°20' E 005°08'0 0.0
2016-Aug-21 18:32N 52°20' E 005°08'0 0.0
2016-Aug-21 17:23N 52°20' E 005°08'0 0.0
2016-Aug-21 16:20N 52°20' E 005°08'2 2.9
2016-Aug-21 15:33N 52°22' E 005°05'5 4.7
2016-Aug-21 14:33N 52°23' E 004°58'3 2.6
2016-Aug-21 13:33N 52°24' E 004°54'5 5.2
2016-Aug-21 12:33N 52°26' E 004°46'4 3.5
2016-Aug-21 11:33N 52°27' E 004°41'3 3.2
2016-Aug-21 10:29N 52°28' E 004°35'1 0.9
2016-Aug-21 09:32N 52°28' E 004°34'0 0.0
2016-Aug-21 08:29N 52°28' E 004°34'0 0.0
2016-Aug-21 07:32N 52°28' E 004°34'0 0.0
2016-Aug-20 21:33N 52°28' E 004°34'0 0.0
2016-Aug-20 20:30N 52°28' E 004°34'2 2.4
2016-Aug-20 19:33N 52°28' E 004°30'6 6.1
2016-Aug-20 18:33N 52°22' E 004°25'7 7.3
2016-Aug-20 17:33N 52°16' E 004°19'7 7.4
2016-Aug-20 16:33N 52°10' E 004°13'7 7.3
2016-Aug-20 15:33N 52°04' E 004°06'5 4.7
2016-Aug-20 14:33N 51°59' E 004°06'5 5.1
2016-Aug-20 13:33N 51°56' E 004°13'6 5.7
2016-Aug-20 12:32N 51°54' E 004°21'5 5.0
2016-Aug-20 11:32N 51°55' E 004°29'0 0.0
2016-Aug-19 19:17N 51°55' E 004°30'  
2016-Aug-17 09:24N 52°21' E 005°08'  

Dump ship's entire track history